createdAt,value
2019-03-04T18:10:16.069Z,3.97
2019-03-04T18:10:47.543Z,5.20
2019-03-04T18:11:18.782Z,4.00
2019-03-04T18:11:49.991Z,3.37
2019-03-04T18:12:21.143Z,3.57
2019-03-04T18:12:56.447Z,3.30
2019-03-04T18:13:27.604Z,3.70
2019-03-04T18:13:58.864Z,3.60
2019-03-04T18:14:30.028Z,3.93
2019-03-04T18:15:01.258Z,4.20
2019-03-04T18:15:40.578Z,3.43
2019-03-04T18:16:11.800Z,3.03
2019-03-04T18:16:43.017Z,3.10
2019-03-04T18:17:14.268Z,3.40
2019-03-04T18:17:45.520Z,3.47
2019-03-04T18:18:16.750Z,3.70
2019-03-04T18:18:48.036Z,3.10
2019-03-04T18:19:19.300Z,3.20
2019-03-04T18:19:51.550Z,3.50
2019-03-04T18:20:22.786Z,3.07
2019-03-04T18:20:54.132Z,3.87
2019-03-04T18:21:25.353Z,4.00
2019-03-04T18:21:56.585Z,11.30
2019-03-04T18:22:29.655Z,14.67
2019-03-04T18:23:01.027Z,16.10
2019-03-04T18:23:32.171Z,16.20
2019-03-04T18:24:03.391Z,10.60
2019-03-04T18:24:34.650Z,6.40
2019-03-04T18:25:29.636Z,5.10
2019-03-04T18:26:09.264Z,4.93
2019-03-04T18:26:43.090Z,4.47
2019-03-04T18:27:14.378Z,4.30
2019-03-04T18:27:49.908Z,4.73
2019-03-04T18:28:57.205Z,6.00
2019-03-04T18:29:39.569Z,6.80
2019-03-04T18:30:28.177Z,4.67
2019-03-04T18:31:07.851Z,5.20
2019-03-04T18:31:53.836Z,5.00
2019-03-04T18:32:46.290Z,4.40
2019-03-04T18:33:35.999Z,3.90
2019-03-04T18:34:15.891Z,3.37
2019-03-04T18:35:14.523Z,3.80
2019-03-04T18:36:14.791Z,4.27
2019-03-04T18:37:01.547Z,4.00
2019-03-04T18:37:48.603Z,4.50
2019-03-04T18:38:56.979Z,4.67
2019-03-04T18:39:52.133Z,3.30
2019-03-04T18:40:46.362Z,5.17
2019-03-04T18:41:35.142Z,5.10
2019-03-04T18:42:19.923Z,4.87
2019-03-04T18:43:20.354Z,4.13
2019-03-04T18:44:03.113Z,3.83
2019-03-04T18:44:43.235Z,3.50
2019-03-04T18:45:42.937Z,3.80
2019-03-04T18:46:37.232Z,3.23
2019-03-04T18:47:37.834Z,4.13
2019-03-04T18:48:14.752Z,4.07
2019-03-04T18:48:53.140Z,4.43
2019-03-04T18:49:24.357Z,4.03
2019-03-04T18:49:57.423Z,3.87
2019-03-04T18:50:28.905Z,4.13
2019-03-04T18:51:00.077Z,5.03
2019-03-04T18:51:31.746Z,5.30
2019-03-04T18:52:02.919Z,4.30
2019-03-04T18:52:34.157Z,4.00
2019-03-04T18:53:05.336Z,5.27
2019-03-04T18:53:36.574Z,3.87
2019-03-04T18:54:08.529Z,3.53
2019-03-04T18:54:39.762Z,3.23
2019-03-04T18:55:10.938Z,3.50
2019-03-04T18:55:42.171Z,3.13
2019-03-04T18:56:21.756Z,2.80
2019-03-04T18:56:46.456Z,3.00
2019-03-04T18:57:17.607Z,3.13
2019-03-04T18:57:48.808Z,2.80
2019-03-04T18:58:19.959Z,3.43
2019-03-04T18:58:51.287Z,3.00
2019-03-04T18:59:22.457Z,3.00
2019-03-04T18:59:53.657Z,2.70
2019-03-04T19:00:25.390Z,3.10
2019-03-04T19:00:56.705Z,2.77
2019-03-04T19:01:27.864Z,3.50
2019-03-04T19:01:59.409Z,3.10
2019-03-04T19:02:30.576Z,2.80
2019-03-04T19:03:02.788Z,3.00
2019-03-04T19:03:33.977Z,3.00
2019-03-04T19:04:05.220Z,4.10
2019-03-04T19:04:37.504Z,2.77
2019-03-04T19:05:10.022Z,3.40
2019-03-04T19:05:41.260Z,3.67
2019-03-04T19:06:13.887Z,3.93
2019-03-04T19:06:45.142Z,3.77
2019-03-04T19:07:16.324Z,3.50
2019-03-04T19:07:48.517Z,3.43
2019-03-04T19:08:19.719Z,3.80
2019-03-04T19:08:50.900Z,3.73
2019-03-04T19:09:22.203Z,3.10
2019-03-04T19:09:53.359Z,3.30
2019-03-04T19:10:24.598Z,2.97
2019-03-04T19:10:55.872Z,3.20
2019-03-04T19:11:27.446Z,2.87
2019-03-04T19:11:58.841Z,2.87
2019-03-04T19:12:30.387Z,3.30
2019-03-04T19:13:01.915Z,3.20
2019-03-04T19:13:33.128Z,2.87
2019-03-04T19:14:04.427Z,3.30
2019-03-04T19:14:36.086Z,2.70
2019-03-04T19:15:09.952Z,2.90
2019-03-04T19:15:42.199Z,3.07
2019-03-04T19:16:13.773Z,3.70
2019-03-04T19:16:45.222Z,3.50
2019-03-04T19:17:16.359Z,3.00
2019-03-04T19:17:48.246Z,2.70
2019-03-04T19:18:20.324Z,3.13
2019-03-04T19:18:51.907Z,2.90
2019-03-04T19:19:23.601Z,3.00
2019-03-04T19:19:54.920Z,2.90
2019-03-04T19:20:26.775Z,3.40
2019-03-04T19:20:59.129Z,2.77
2019-03-04T19:21:30.643Z,2.80
2019-03-04T19:22:02.124Z,2.70
2019-03-04T19:22:33.473Z,2.67
2019-03-04T19:23:04.945Z,2.53
2019-03-04T19:23:36.398Z,3.07
2019-03-04T19:24:07.745Z,3.20
2019-03-04T19:24:39.057Z,2.77
2019-03-04T19:25:10.500Z,4.33
2019-03-04T19:25:41.958Z,3.10
2019-03-04T19:26:13.103Z,3.13
2019-03-04T19:26:44.321Z,2.97
2019-03-04T19:27:15.470Z,3.47
2019-03-04T19:27:46.786Z,3.17
2019-03-04T19:28:17.951Z,3.00
2019-03-04T19:28:49.182Z,3.43
2019-03-04T19:29:20.341Z,3.00
2019-03-04T19:29:53.421Z,3.47
2019-03-04T19:30:24.606Z,4.27
2019-03-04T19:30:55.814Z,4.57
2019-03-04T19:31:27.100Z,4.40
2019-03-04T19:31:58.292Z,3.23
2019-03-04T19:32:29.584Z,3.90
2019-03-04T19:33:00.754Z,2.50
2019-03-04T19:33:32.096Z,2.83
2019-03-04T19:34:03.285Z,2.37
2019-03-04T19:34:34.470Z,1.97
2019-03-04T19:35:08.922Z,1.90
2019-03-04T19:35:40.171Z,1.43
2019-03-04T19:36:11.424Z,1.40
2019-03-04T19:36:42.640Z,2.00
2019-03-04T19:37:13.774Z,1.30
2019-03-04T19:37:45.078Z,1.10
2019-03-04T19:38:16.467Z,1.03
2019-03-04T19:38:47.646Z,1.60
2019-03-04T19:39:18.786Z,1.30
2019-03-04T19:39:49.967Z,1.87
2019-03-04T19:40:21.136Z,1.70
2019-03-04T19:40:52.296Z,1.30
2019-03-04T19:41:23.490Z,1.40
2019-03-04T19:41:54.656Z,1.80
2019-03-04T19:42:25.805Z,1.70
2019-03-04T19:42:56.980Z,1.70
2019-03-04T19:43:32.812Z,1.70
2019-03-04T19:44:01.179Z,1.67
2019-03-04T19:44:32.479Z,1.70
2019-03-04T19:45:17.056Z,1.20
2019-03-04T19:45:49.221Z,1.50
2019-03-04T19:46:20.441Z,2.40
2019-03-04T19:46:51.600Z,1.97
2019-03-04T19:47:22.817Z,2.03
2019-03-04T19:47:53.964Z,1.70
2019-03-04T19:48:26.501Z,1.57
2019-03-04T19:48:57.685Z,1.80
2019-03-04T19:49:29.039Z,1.30
2019-03-04T19:50:00.389Z,1.10
2019-03-04T19:50:31.664Z,1.10
2019-03-04T19:51:02.839Z,1.47
2019-03-04T19:51:34.124Z,1.13
2019-03-04T19:52:05.331Z,1.30
2019-03-04T19:52:36.527Z,1.50
2019-03-04T19:53:08.694Z,1.33
2019-03-04T19:53:39.873Z,1.30
2019-03-04T19:54:11.044Z,1.30
2019-03-04T19:54:42.207Z,1.40
2019-03-04T19:55:16.396Z,1.00
2019-03-04T19:55:47.620Z,1.07
2019-03-04T19:56:18.836Z,1.00
2019-03-04T19:56:50.046Z,1.10
2019-03-04T19:57:21.262Z,1.00
2019-03-04T19:57:52.552Z,1.00
2019-03-04T19:58:23.737Z,1.13
2019-03-04T19:58:54.919Z,1.17
2019-03-04T19:59:26.113Z,1.40
2019-03-04T19:59:57.323Z,1.23
2019-03-04T20:00:29.570Z,1.20
2019-03-04T20:01:00.866Z,1.03
2019-03-04T20:01:32.102Z,1.40
2019-03-04T20:02:03.405Z,1.73
2019-03-04T20:02:34.582Z,1.47
2019-03-04T20:03:05.841Z,2.13
2019-03-04T20:03:37.002Z,1.67
2019-03-04T20:04:08.227Z,1.40
2019-03-04T20:04:39.393Z,1.43
2019-03-04T20:05:13.148Z,1.40
2019-03-04T20:05:45.412Z,1.20
2019-03-04T20:06:16.640Z,1.07
2019-03-04T20:06:47.808Z,1.60
2019-03-04T20:07:19.127Z,1.53
2019-03-04T20:07:50.301Z,1.20
2019-03-04T20:08:21.534Z,1.63
2019-03-04T20:08:52.698Z,1.40
2019-03-04T20:09:23.934Z,1.60
2019-03-04T20:09:55.102Z,1.67
2019-03-04T20:10:26.690Z,1.73
2019-03-04T20:10:57.850Z,1.70
2019-03-04T20:11:29.053Z,1.90
2019-03-04T20:12:00.226Z,1.60
2019-03-04T20:12:31.527Z,1.77
2019-03-04T20:13:02.704Z,1.57
2019-03-04T20:13:33.913Z,1.27
2019-03-04T20:14:05.183Z,1.73
2019-03-04T20:14:36.491Z,1.70
2019-03-04T20:15:27.055Z,2.10
2019-03-04T20:15:58.234Z,2.17
2019-03-04T20:16:29.483Z,1.90
2019-03-04T20:17:01.810Z,1.60
2019-03-04T20:17:33.006Z,2.00
2019-03-04T20:18:04.179Z,1.90
2019-03-04T20:18:36.463Z,1.80
2019-03-04T20:19:07.654Z,2.23
2019-03-04T20:19:38.841Z,1.60
2019-03-04T20:20:10.035Z,1.50
2019-03-04T20:20:41.231Z,1.47
2019-03-04T20:21:12.423Z,2.23
2019-03-04T20:21:43.698Z,1.90
2019-03-04T20:22:14.881Z,2.30
2019-03-04T20:22:47.066Z,1.90
2019-03-04T20:23:18.255Z,1.93
2019-03-04T20:23:49.448Z,2.10
2019-03-04T20:24:20.656Z,2.63
2019-03-04T20:24:51.858Z,2.50
2019-03-04T20:25:24.483Z,2.13
2019-03-04T20:25:55.841Z,1.83
2019-03-04T20:26:27.145Z,1.70
2019-03-04T20:26:58.305Z,2.07
2019-03-04T20:27:29.586Z,2.00
2019-03-04T20:28:00.744Z,1.90
2019-03-04T20:28:33.176Z,2.63
2019-03-04T20:29:04.348Z,1.90
2019-03-04T20:29:35.549Z,2.00
2019-03-04T20:30:22.858Z,2.07
2019-03-04T20:30:54.182Z,2.27
2019-03-04T20:31:25.366Z,2.23
2019-03-04T20:31:56.582Z,2.10
2019-03-04T20:32:27.835Z,1.87
2019-03-04T20:32:59.101Z,1.73
2019-03-04T20:33:30.277Z,1.83
2019-03-04T20:34:01.617Z,2.20
2019-03-04T20:34:32.880Z,2.40
2019-03-04T20:35:08.165Z,1.50
2019-03-04T20:35:39.780Z,1.70
2019-03-04T20:36:11.049Z,1.70
2019-03-04T20:36:42.373Z,1.97
2019-03-04T20:37:13.755Z,2.30
2019-03-04T20:38:07.135Z,1.67
2019-03-04T20:38:42.945Z,1.50
2019-03-04T20:39:14.244Z,2.10
2019-03-04T20:39:45.427Z,2.10
2019-03-04T20:40:18.598Z,2.50
2019-03-04T20:40:49.780Z,2.33
2019-03-04T20:41:20.955Z,2.20
2019-03-04T20:41:52.149Z,2.20
2019-03-04T20:42:23.361Z,2.27
2019-03-04T20:42:54.556Z,2.40
2019-03-04T20:43:25.759Z,2.10
2019-03-04T20:43:56.952Z,2.70
2019-03-04T20:44:28.125Z,2.40
2019-03-04T20:44:59.518Z,1.77
2019-03-04T20:45:31.717Z,2.20
2019-03-04T20:46:02.999Z,2.40
2019-03-04T20:46:34.211Z,2.33
2019-03-04T20:47:05.395Z,2.50
2019-03-04T20:47:36.593Z,2.27
2019-03-04T20:48:07.796Z,2.50
2019-03-04T20:48:39.029Z,2.47
2019-03-04T20:49:10.212Z,2.40
2019-03-04T20:49:41.600Z,2.43
2019-03-04T20:50:21.160Z,2.00
2019-03-04T20:50:52.367Z,1.93
2019-03-04T20:51:23.548Z,2.20
2019-03-04T20:51:54.766Z,2.00
2019-03-04T20:52:25.932Z,2.80
2019-03-04T20:52:57.146Z,2.57
2019-03-04T20:53:28.298Z,2.70
2019-03-04T20:53:59.542Z,2.63
2019-03-04T20:54:30.702Z,2.90
2019-03-04T20:55:04.567Z,2.27
2019-03-04T20:55:36.082Z,2.60
2019-03-04T20:56:07.716Z,2.70
2019-03-04T20:56:39.213Z,2.87
2019-03-04T20:57:10.459Z,2.80
2019-03-04T20:57:41.779Z,2.67
2019-03-04T20:58:13.023Z,2.83
2019-03-04T20:58:44.271Z,2.53
2019-03-04T20:59:15.532Z,2.57
2019-03-04T20:59:46.764Z,2.70
2019-03-04T21:00:37.463Z,2.90
2019-03-04T21:01:08.790Z,3.20
2019-03-04T21:01:40.039Z,2.57
2019-03-04T21:02:11.266Z,2.77
2019-03-04T21:02:42.506Z,2.30
2019-03-04T21:03:13.731Z,1.93
2019-03-04T21:03:45.080Z,1.90
2019-03-04T21:04:16.436Z,2.17
2019-03-04T21:04:47.663Z,1.70
2019-03-04T21:05:19.005Z,1.93
2019-03-04T21:05:50.310Z,2.30
2019-03-04T21:06:21.601Z,2.27
2019-03-04T21:06:55.724Z,2.43
2019-03-04T21:07:27.000Z,1.80
2019-03-04T21:07:58.341Z,2.20
2019-03-04T21:08:29.568Z,2.17
2019-03-04T21:09:00.768Z,2.20
2019-03-04T21:09:32.019Z,2.03
2019-03-04T21:10:08.331Z,2.77
2019-03-04T21:10:39.858Z,3.43
2019-03-04T21:11:11.338Z,2.73
2019-03-04T21:11:42.634Z,2.83
2019-03-04T21:12:50.223Z,3.17
2019-03-04T21:13:34.898Z,4.97
2019-03-04T21:13:57.526Z,4.33
2019-03-04T21:14:28.940Z,2.77
2019-03-04T21:15:00.251Z,3.10
2019-03-04T21:15:31.934Z,2.20
2019-03-04T21:16:03.206Z,2.30
2019-03-04T21:16:34.378Z,2.00
2019-03-04T21:17:05.624Z,1.80
2019-03-04T21:17:36.790Z,2.10
2019-03-04T21:18:08.030Z,1.80
2019-03-04T21:18:39.183Z,2.20
2019-03-04T21:19:10.404Z,2.53
2019-03-04T21:19:41.560Z,1.97
2019-03-04T21:20:17.352Z,1.80
2019-03-04T21:20:48.738Z,1.87
2019-03-04T21:21:19.950Z,1.80
2019-03-04T21:21:53.008Z,1.77
2019-03-04T21:22:24.229Z,1.90
2019-03-04T21:22:55.416Z,2.20
2019-03-04T21:23:26.740Z,2.20
2019-03-04T21:23:57.894Z,2.00
2019-03-04T21:24:29.626Z,2.17
2019-03-04T21:25:00.786Z,2.07
2019-03-04T21:25:49.363Z,2.00
2019-03-04T21:26:22.255Z,1.93
2019-03-04T21:26:53.479Z,2.07
2019-03-04T21:27:24.831Z,1.90
2019-03-04T21:27:56.077Z,2.40
2019-03-04T21:29:03.234Z,2.00
2019-03-04T21:29:46.090Z,2.03
2019-03-04T21:30:23.029Z,2.00
2019-03-04T21:31:16.378Z,2.13
2019-03-04T21:31:59.093Z,2.30
2019-03-04T21:32:36.029Z,2.40
2019-03-04T21:33:07.770Z,2.00
2019-03-04T21:34:07.297Z,1.97
2019-03-04T21:35:20.438Z,2.30
2019-03-04T21:36:03.420Z,2.03
2019-03-04T21:37:04.044Z,2.00
2019-03-04T21:37:38.558Z,1.83
2019-03-04T21:38:09.817Z,1.97
2019-03-04T21:38:40.966Z,2.07
2019-03-04T21:39:16.894Z,2.00
2019-03-04T21:39:59.129Z,2.20
2019-03-04T21:40:41.400Z,2.30
2019-03-04T21:41:24.168Z,1.83
2019-03-04T21:42:16.288Z,2.10
2019-03-04T21:42:58.242Z,2.83
2019-03-04T21:43:37.929Z,2.27
2019-03-04T21:44:32.776Z,1.90
2019-03-04T21:45:44.670Z,2.10
2019-03-04T21:46:57.604Z,2.00
2019-03-04T21:47:37.226Z,2.37
2019-03-04T21:48:26.006Z,1.97
2019-03-04T21:49:01.628Z,2.17
2019-03-04T21:49:37.796Z,2.33
2019-03-04T21:50:26.623Z,2.10
2019-03-04T21:51:12.640Z,2.07
2019-03-04T21:51:52.286Z,1.97
2019-03-04T21:52:32.156Z,2.10
2019-03-04T21:53:20.511Z,1.87
2019-03-04T21:53:51.855Z,2.00
2019-03-04T21:54:23.067Z,1.80
2019-03-04T21:54:54.213Z,1.80
2019-03-04T21:55:43.110Z,1.97
2019-03-04T21:56:34.507Z,1.97
2019-03-04T21:57:28.902Z,2.07
2019-03-04T21:58:00.219Z,2.07
2019-03-04T21:58:31.638Z,2.60
2019-03-04T21:59:05.887Z,2.50
2019-03-04T21:59:37.223Z,3.00
2019-03-04T22:00:15.875Z,2.87
2019-03-04T22:00:54.821Z,2.77
2019-03-04T22:01:34.809Z,2.87
2019-03-04T22:02:29.771Z,2.70
2019-03-04T22:03:09.046Z,2.70
2019-03-04T22:03:40.373Z,2.90
2019-03-04T22:04:11.709Z,2.80
2019-03-04T22:04:43.358Z,2.73
2019-03-04T22:05:16.896Z,2.80
2019-03-04T22:05:50.525Z,3.10
2019-03-04T22:06:22.514Z,3.03
2019-03-04T22:06:53.762Z,3.60
2019-03-04T22:07:25.013Z,3.10
2019-03-04T22:07:56.242Z,3.20
2019-03-04T22:08:27.451Z,2.93
2019-03-04T22:08:58.818Z,3.07
2019-03-04T22:09:30.328Z,2.63
2019-03-04T22:10:01.766Z,3.30
2019-03-04T22:10:33.097Z,3.10
2019-03-04T22:11:04.270Z,2.70
2019-03-04T22:11:37.004Z,2.93
2019-03-04T22:12:13.086Z,2.87
2019-03-04T22:12:44.488Z,3.30
2019-03-04T22:13:15.768Z,3.23
2019-03-04T22:13:47.052Z,2.73
2019-03-04T22:14:18.424Z,3.57
2019-03-04T22:14:49.629Z,3.30
2019-03-04T22:15:21.871Z,3.17
2019-03-04T22:15:53.084Z,3.50
2019-03-04T22:16:24.247Z,3.40
2019-03-04T22:16:55.481Z,3.80
2019-03-04T22:17:26.717Z,3.40
2019-03-04T22:17:59.936Z,3.53
2019-03-04T22:18:31.219Z,3.50
2019-03-04T22:19:02.476Z,3.70
2019-03-04T22:19:34.709Z,3.43
2019-03-04T22:20:11.627Z,3.67
2019-03-04T22:20:43.063Z,3.70
2019-03-04T22:21:16.662Z,3.23
2019-03-04T22:21:47.451Z,3.40
2019-03-04T22:22:18.697Z,3.20
2019-03-04T22:22:50.063Z,3.80
2019-03-04T22:23:22.334Z,3.30
2019-03-04T22:23:53.546Z,3.90
2019-03-04T22:24:24.712Z,3.30
2019-03-04T22:24:55.923Z,3.67
2019-03-04T22:25:27.075Z,3.30
2019-03-04T22:26:01.976Z,3.10
2019-03-04T22:26:31.345Z,3.60
2019-03-04T22:27:02.588Z,3.37
2019-03-04T22:27:33.829Z,3.57
2019-03-04T22:28:05.043Z,3.73
2019-03-04T22:28:36.230Z,3.80
2019-03-04T22:29:07.576Z,3.77
2019-03-04T22:29:38.799Z,3.80
2019-03-04T22:30:17.199Z,4.20
2019-03-04T22:30:48.548Z,3.83
2019-03-04T22:31:19.827Z,4.27
2019-03-04T22:31:51.039Z,4.20
2019-03-04T22:32:22.254Z,3.97
2019-03-04T22:32:54.488Z,3.73
2019-03-04T22:33:25.736Z,3.90
2019-03-04T22:33:56.987Z,3.80
2019-03-04T22:34:28.174Z,4.03
2019-03-04T22:34:59.481Z,4.00
2019-03-04T22:35:30.647Z,4.10
2019-03-04T22:36:02.146Z,3.87
2019-03-04T22:36:33.334Z,3.50
2019-03-04T22:37:04.558Z,3.43
2019-03-04T22:37:35.752Z,4.07
2019-03-04T22:38:06.980Z,3.67
2019-03-04T22:38:38.145Z,3.63
2019-03-04T22:39:09.392Z,3.27
2019-03-04T22:39:40.871Z,3.93
2019-03-04T22:40:21.716Z,4.07
2019-03-04T22:40:52.880Z,4.00
2019-03-04T22:41:24.075Z,3.70
2019-03-04T22:41:55.256Z,4.20
2019-03-04T22:42:26.457Z,4.17
2019-03-04T22:42:57.632Z,3.90
2019-03-04T22:43:29.192Z,3.90
2019-03-04T22:44:00.517Z,3.93
2019-03-04T22:44:31.655Z,4.30
2019-03-04T22:45:10.681Z,4.00
2019-03-04T22:45:41.851Z,4.30
2019-03-04T22:46:13.047Z,4.50
2019-03-04T22:46:44.235Z,3.97
2019-03-04T22:47:15.437Z,4.10
2019-03-04T22:47:48.905Z,3.83
2019-03-04T22:48:20.125Z,4.30
2019-03-04T22:48:51.322Z,3.77
2019-03-04T22:49:22.499Z,4.03
2019-03-04T22:49:53.680Z,4.10
2019-03-04T22:50:24.864Z,4.10
2019-03-04T22:50:56.035Z,4.00
2019-03-04T22:51:27.238Z,3.50
2019-03-04T22:51:58.668Z,3.87
2019-03-04T22:52:29.844Z,3.83
2019-03-04T22:53:01.040Z,3.63
2019-03-04T22:53:32.354Z,3.67
2019-03-04T22:54:03.635Z,3.90
2019-03-04T22:54:34.844Z,4.00
2019-03-04T22:55:17.040Z,3.70
2019-03-04T22:55:48.219Z,4.30
2019-03-04T22:56:19.394Z,4.43
2019-03-04T22:56:50.577Z,4.70
2019-03-04T22:57:21.766Z,4.20
2019-03-04T22:57:52.950Z,4.53
2019-03-04T22:58:28.609Z,3.93
2019-03-04T22:58:57.264Z,3.90
2019-03-04T22:59:28.410Z,3.83
2019-03-04T22:59:59.616Z,4.30
2019-03-04T23:00:51.610Z,4.20
2019-03-04T23:01:30.878Z,4.03
2019-03-04T23:02:02.216Z,4.00
2019-03-04T23:02:33.513Z,4.20
2019-03-04T23:03:04.693Z,4.50
2019-03-04T23:03:36.914Z,3.97
2019-03-04T23:04:14.482Z,3.63
2019-03-04T23:04:45.668Z,4.17
2019-03-04T23:05:17.340Z,3.80
2019-03-04T23:06:06.007Z,3.77
2019-03-04T23:06:42.890Z,3.67
2019-03-04T23:07:14.078Z,4.10
2019-03-04T23:07:46.445Z,3.73
2019-03-04T23:08:17.622Z,3.63
2019-03-04T23:08:48.803Z,4.00
2019-03-04T23:09:23.821Z,3.70
2019-03-04T23:09:57.815Z,4.07
2019-03-04T23:10:30.699Z,4.00
2019-03-04T23:11:02.193Z,3.77
2019-03-04T23:11:33.425Z,3.67
2019-03-04T23:12:25.427Z,3.63
2019-03-04T23:12:57.858Z,4.40
2019-03-04T23:13:58.815Z,4.07
2019-03-04T23:14:30.021Z,3.67
2019-03-04T23:15:01.185Z,4.43
2019-03-04T23:15:32.406Z,4.20
2019-03-04T23:16:04.664Z,3.70
2019-03-04T23:16:35.880Z,4.33
2019-03-04T23:17:07.027Z,4.23
2019-03-04T23:17:38.233Z,3.97
2019-03-04T23:18:09.398Z,4.27
2019-03-04T23:18:40.620Z,3.90
2019-03-04T23:19:11.773Z,4.07
2019-03-04T23:19:42.999Z,3.70
2019-03-04T23:20:14.171Z,4.07
2019-03-04T23:20:45.390Z,3.90
2019-03-04T23:21:17.560Z,3.83
2019-03-04T23:21:48.783Z,3.83
2019-03-04T23:22:19.941Z,3.90
2019-03-04T23:22:51.136Z,4.10
2019-03-04T23:23:22.286Z,3.70
2019-03-04T23:23:53.479Z,3.50
2019-03-04T23:24:24.644Z,4.07
2019-03-04T23:24:55.892Z,4.00
2019-03-04T23:25:27.049Z,4.10
2019-03-04T23:25:58.255Z,4.27
2019-03-04T23:26:29.398Z,4.10
2019-03-04T23:27:00.602Z,4.17
2019-03-04T23:27:31.762Z,4.57
2019-03-04T23:28:02.976Z,4.90
2019-03-04T23:28:34.140Z,4.70
2019-03-04T23:29:05.372Z,4.50
2019-03-04T23:29:36.542Z,3.87
2019-03-04T23:30:13.972Z,4.23
2019-03-04T23:30:45.134Z,3.90
2019-03-04T23:31:16.356Z,4.67
2019-03-04T23:31:47.599Z,4.20
2019-03-04T23:32:18.812Z,4.10
2019-03-04T23:32:49.989Z,3.73
2019-03-04T23:33:23.092Z,3.90
2019-03-04T23:33:54.240Z,3.87
2019-03-04T23:34:25.643Z,3.70
2019-03-04T23:34:56.784Z,3.90
2019-03-04T23:35:27.998Z,4.17
2019-03-04T23:35:59.162Z,4.37
2019-03-04T23:36:30.379Z,3.23
2019-03-04T23:37:01.760Z,3.53
2019-03-04T23:37:33.018Z,3.87
2019-03-04T23:38:04.224Z,3.67
2019-03-04T23:38:35.435Z,3.87
2019-03-04T23:39:06.994Z,3.70
2019-03-04T23:39:38.879Z,4.07
2019-03-04T23:40:10.188Z,4.07
2019-03-04T23:40:41.347Z,4.27
2019-03-04T23:41:14.236Z,4.30
2019-03-04T23:41:45.487Z,4.10
2019-03-04T23:42:16.657Z,4.13
2019-03-04T23:42:47.829Z,4.00
2019-03-04T23:43:19.031Z,3.70
2019-03-04T23:43:50.191Z,3.90
2019-03-04T23:44:21.355Z,4.23
2019-03-04T23:44:52.535Z,4.23
2019-03-04T23:45:23.735Z,3.90
2019-03-04T23:45:54.901Z,3.80
2019-03-04T23:46:26.112Z,4.00
2019-03-04T23:46:57.279Z,3.60
2019-03-04T23:47:28.859Z,3.67
2019-03-04T23:48:00.123Z,3.50
2019-03-04T23:48:31.629Z,3.60
2019-03-04T23:49:02.782Z,3.60
2019-03-04T23:49:33.991Z,3.57
2019-03-04T23:50:22.971Z,3.20
2019-03-04T23:50:54.314Z,3.67
2019-03-04T23:51:25.482Z,3.30
2019-03-04T23:51:58.816Z,3.67
2019-03-04T23:52:29.980Z,3.60
2019-03-04T23:53:01.194Z,3.67
2019-03-04T23:53:32.408Z,3.60
2019-03-04T23:54:03.672Z,3.20
2019-03-04T23:54:34.836Z,3.13
2019-03-04T23:55:07.142Z,3.53
2019-03-04T23:55:38.302Z,3.67
2019-03-04T23:56:09.546Z,3.87
2019-03-04T23:56:40.692Z,3.63
2019-03-04T23:57:11.903Z,3.30
2019-03-04T23:57:43.066Z,3.90
2019-03-04T23:58:14.272Z,3.60
2019-03-04T23:58:45.434Z,3.37
2019-03-04T23:59:16.648Z,3.20
2019-03-04T23:59:47.807Z,3.70
